Time;durP1;ratioP1;P1;durP2;ratioP2;P2;SDS_P1;SDS_P2;PMS_P1;PMS_P2;Temp;Humidity;BMP_temperature;BMP_pressure;BME280_temperature;BME280_humidity;BME280_pressure;Samples;Min_cycle;Max_cycle;Signal;HPM_P1;HPM_P2
2022/10/23 00:01:52;;;;;;;;;;;;;;;;;;5052737;28;7172;-83
2022/10/23 00:04:25;;;;;;;;;;;;;;;;;;5052694;28;8696;-83
2022/10/23 00:06:50;;;;;;;;;;;;;;;;;;5052070;28;7388;-83
2022/10/23 00:09:18;;;;;;;;;;;;;;;;;;5052520;28;7328;-83
2022/10/23 00:11:46;;;;;;;;;;;;;;;;;;5052793;28;8728;-83
2022/10/23 00:14:13;;;;;;;;;;;;;;;;;;5052664;28;7344;-84
2022/10/23 00:16:38;;;;;;;;;;;;;;;;;;5052100;28;8086;-83
2022/10/23 00:19:04;;;;;;;;;;;;;;;;;;5052611;28;8635;-84
2022/10/23 00:21:29;;;;;;;;;;;;;;;;;;5051827;28;7154;-84
2022/10/23 00:23:55;;;;;;;;;;;;;;;;;;5052634;28;7148;-83
2022/10/23 00:26:20;;;;;;;;;;;;;;;;;;5051969;28;8365;-82
2022/10/23 00:28:48;;;;;;;;;;;;;;;;;;5052246;28;8365;-83
2022/10/23 00:31:13;;;;;;;;;;;;;;;;;;5052342;28;7158;-84
2022/10/23 00:33:40;;;;;;;;;;;;;;;;;;5051968;28;7392;-84
2022/10/23 00:36:07;;;;;;;;;;;;;;;;;;5052718;28;7169;-83
2022/10/23 00:38:32;;;;;;;;;;;;;;;;;;5052035;28;7453;-84
2022/10/23 00:40:58;;;;;;;;;;;;;;;;;;5052038;28;8708;-84
2022/10/23 00:43:25;;;;;;;;;;;;;;;;;;5050747;28;8463;-84
2022/10/23 00:45:52;;;;;;;;;;;;;;;;;;5051913;28;7424;-83
2022/10/23 00:48:18;;;;;;;;;;;;;;;;;;5051794;28;8788;-84
2022/10/23 00:50:45;;;;;;;;;;;;;;;;;;5051645;28;8684;-83
2022/10/23 00:53:11;;;;;;;;;;;;;;;;;;5051678;28;8399;-83
2022/10/23 00:55:40;;;;;;;;;;;;;;;;;;5051131;28;7145;-81
2022/10/23 00:58:06;;;;;;;;;;;;;;;;;;5051627;28;8379;-84
2022/10/23 01:00:52;;;;;;;;;;;;;;;;;;5051177;28;7023;-83
2022/10/23 01:03:20;;;;;;;;;;;;;;;;;;5052006;28;8572;-84
2022/10/23 01:05:48;;;;;;;;;;;;;;;;;;5051849;28;7102;-85
2022/10/23 01:08:20;;;;;;;;;;;;;;;;;;5035666;28;7164;-83
2022/10/23 01:10:55;;;;;;;;;;;;;;;;;;5051304;28;8383;-84
2022/10/23 01:13:20;;;;;;;;;;;;;;;;;;5051436;28;8413;-82
2022/10/23 01:15:52;;;;;;;;;;;;;;;;;;5034559;28;8731;-84
2022/10/23 01:18:21;;;;;;;;;;;;;;;;;;5051753;28;8406;-83
2022/10/23 01:21:25;;;;;;;;;;;;;;;;;;5034550;28;8409;-83
2022/10/23 01:23:50;;;;;;;;;;;;;;;;;;5010406;28;8400;-84
2022/10/23 01:26:16;;;;;;;;;;;;;;;;;;5010611;28;8662;-83
2022/10/23 01:29:00;;;;;;;;;;;;;;;;;;4977879;28;8680;-83
2022/10/23 01:31:43;;;;;;;;;;;;;;;;;;5010613;28;8311;-83
2022/10/23 01:34:13;;;;;;;;;;;;;;;;;;5010631;28;8729;-82
2022/10/23 01:36:42;;;;;;;;;;;;;;;;;;5010214;28;7227;-84
2022/10/23 01:39:12;;;;;;;;;;;;;;;;;;5010216;28;7132;-84
2022/10/23 01:41:43;;;;;;;;;;;;;;;;;;5010131;28;8476;-83
2022/10/23 01:44:11;;;;;;;;;;;;;;;;;;5010103;28;8486;-83
2022/10/23 01:46:38;;;;;;;;;;;;;;;;;;4978069;28;7255;-83
2022/10/23 01:49:07;;;;;;;;;;;;;;;;;;5010254;28;7118;-83
2022/10/23 01:51:36;;;;;;;;;;;;;;;;;;5010222;28;8473;-84
2022/10/23 01:54:06;;;;;;;;;;;;;;;;;;5006701;28;8396;-84
2022/10/23 01:56:34;;;;;;;;;;;;;;;;;;5050225;28;7178;-84
2022/10/23 01:59:08;;;;;;;;;;;;;;;;;;5050872;28;7046;-85
2022/10/23 02:01:36;;;;;;;;;;;;;;;;;;5049913;28;8573;-84
2022/10/23 02:04:06;;;;;;;;;;;;;;;;;;5050438;28;7155;-84
2022/10/23 02:06:32;;;;;;;;;;;;;;;;;;5049962;28;8412;-83
2022/10/23 02:08:57;;;;;;;;;;;;;;;;;;5051020;28;8250;-85
2022/10/23 02:11:23;;;;;;;;;;;;;;;;;;5050314;28;7014;-83
2022/10/23 02:13:51;;;;;;;;;;;;;;;;;;5050194;28;7185;-84
2022/10/23 02:16:20;;;;;;;;;;;;;;;;;;5205039;23;8488;-82
2022/10/23 02:19:05;;;;;;;;;;;;;;;;;;5034823;28;9509;-83
2022/10/23 02:21:40;;;;;;;;;;;;;;;;;;5049738;28;8464;-82
2022/10/23 02:24:13;;;;;;;;;;;;;;;;;;5050311;28;8480;-82
2022/10/23 02:26:48;;;;;;;;;;;;;;;;;;5050611;28;9462;-82
2022/10/23 02:29:27;;;;;;;;;;;;;;;;;;5050824;28;7174;-81
2022/10/23 02:31:53;;;;;;;;;;;;;;;;;;5050419;28;8319;-82
2022/10/23 02:34:18;;;;;;;;;;;;;;;;;;5050226;28;7145;-82
2022/10/23 02:36:44;;;;;;;;;;;;;;;;;;5050185;28;8792;-83
2022/10/23 02:39:10;;;;;;;;;;;;;;;;;;5049983;28;7017;-82
2022/10/23 02:42:00;;;;;;;;;;;;;;;;;;5050174;28;8727;-83
2022/10/23 02:44:49;;;;;;;;;;;;;;;;;;5050032;28;8355;-83
2022/10/23 02:47:14;;;;;;;;;;;;;;;;;;5050116;28;7034;-83
2022/10/23 02:49:43;;;;;;;;;;;;;;;;;;5033079;28;8392;-83
2022/10/23 02:52:28;;;;;;;;;;;;;;;;;;5033739;28;7235;-82
2022/10/23 02:54:53;;;;;;;;;;;;;;;;;;5050208;28;8382;-82
2022/10/23 02:57:30;;;;;;;;;;;;;;;;;;5033601;28;8496;-83
2022/10/23 03:00:02;;;;;;;;;;;;;;;;;;5050438;28;7048;-82
2022/10/23 03:02:40;;;;;;;;;;;;;;;;;;5049673;28;8403;-81
2022/10/23 03:05:09;;;;;;;;;;;;;;;;;;5049749;28;8419;-83
2022/10/23 03:07:37;;;;;;;;;;;;;;;;;;5052003;28;8356;-83
2022/10/23 03:10:03;;;;;;;;;;;;;;;;;;5053997;28;7155;-82
2022/10/23 03:12:28;;;;;;;;;;;;;;;;;;5053344;28;7201;-82
2022/10/23 03:14:54;;;;;;;;;;;;;;;;;;5053879;28;7260;-82
2022/10/23 03:17:19;;;;;;;;;;;;;;;;;;5052984;28;7056;-82
2022/10/23 03:19:44;;;;;;;;;;;;;;;;;;5053125;28;7738;-82
2022/10/23 03:22:10;;;;;;;;;;;;;;;;;;5053317;28;7154;-82
2022/10/23 03:24:35;;;;;;;;;;;;;;;;;;5053203;28;8254;-84
2022/10/23 03:27:01;;;;;;;;;;;;;;;;;;5053105;28;8404;-83
2022/10/23 03:29:26;;;;;;;;;;;;;;;;;;5053054;28;7176;-84
2022/10/23 03:31:52;;;;;;;;;;;;;;;;;;5053632;28;8448;-82
2022/10/23 03:34:18;;;;;;;;;;;;;;;;;;5053059;28;7222;-85
2022/10/23 03:36:43;;;;;;;;;;;;;;;;;;5053383;28;8291;-81
2022/10/23 03:39:09;;;;;;;;;;;;;;;;;;5053268;28;8834;-84
2022/10/23 03:41:34;;;;;;;;;;;;;;;;;;5052955;28;7000;-84
2022/10/23 03:44:00;;;;;;;;;;;;;;;;;;5054483;28;7118;-83
2022/10/23 03:46:25;;;;;;;;;;;;;;;;;;5052858;28;7068;-83
2022/10/23 03:48:50;;;;;;;;;;;;;;;;;;5052694;28;6993;-83
2022/10/23 03:51:16;;;;;;;;;;;;;;;;;;5052942;28;7151;-83
2022/10/23 03:53:42;;;;;;;;;;;;;;;;;;5053038;28;7477;-84
2022/10/23 03:56:07;;;;;;;;;;;;;;;;;;5052443;28;7018;-83
2022/10/23 03:58:33;;;;;;;;;;;;;;;;;;5052922;28;7057;-83
2022/10/23 04:00:58;;;;;;;;;;;;;;;;;;5053526;28;7144;-83
2022/10/23 04:03:24;;;;;;;;;;;;;;;;;;5053206;28;7124;-83
2022/10/23 04:05:49;;;;;;;;;;;;;;;;;;5053022;28;8282;-83
2022/10/23 04:08:15;;;;;;;;;;;;;;;;;;5052749;28;8391;-81
2022/10/23 04:10:40;;;;;;;;;;;;;;;;;;5052683;28;7127;-84
2022/10/23 04:13:05;;;;;;;;;;;;;;;;;;5052513;28;8370;-83
2022/10/23 04:15:31;;;;;;;;;;;;;;;;;;5052180;28;8453;-82
2022/10/23 04:17:57;;;;;;;;;;;;;;;;;;5051999;28;8303;-81
2022/10/23 04:20:22;;;;;;;;;;;;;;;;;;5052100;28;7376;-82
2022/10/23 04:22:48;;;;;;;;;;;;;;;;;;5052201;28;7132;-82
2022/10/23 04:25:13;;;;;;;;;;;;;;;;;;5052540;28;8375;-80
2022/10/23 04:27:39;;;;;;;;;;;;;;;;;;5052285;28;7407;-85
2022/10/23 04:30:05;;;;;;;;;;;;;;;;;;5051935;28;8472;-83
2022/10/23 04:32:30;;;;;;;;;;;;;;;;;;5051975;28;7230;-83
2022/10/23 04:34:55;;;;;;;;;;;;;;;;;;5051722;28;8572;-81
2022/10/23 04:37:21;;;;;;;;;;;;;;;;;;5051590;28;8368;-83
2022/10/23 04:39:46;;;;;;;;;;;;;;;;;;5052224;28;8371;-84
2022/10/23 04:42:12;;;;;;;;;;;;;;;;;;5045310;28;7016;-84
2022/10/23 04:44:37;;;;;;;;;;;;;;;;;;5035157;28;8672;-82
2022/10/23 04:47:03;;;;;;;;;;;;;;;;;;5027518;28;8399;-84
2022/10/23 04:49:28;;;;;;;;;;;;;;;;;;5031584;28;8729;-82
2022/10/23 04:51:54;;;;;;;;;;;;;;;;;;5032304;28;8347;-84
2022/10/23 04:54:19;;;;;;;;;;;;;;;;;;5031930;28;8590;-83
2022/10/23 04:56:45;;;;;;;;;;;;;;;;;;5031892;28;7130;-83
2022/10/23 04:59:10;;;;;;;;;;;;;;;;;;5031956;28;7149;-83
2022/10/23 05:01:35;;;;;;;;;;;;;;;;;;5034768;28;8366;-84
2022/10/23 05:04:01;;;;;;;;;;;;;;;;;;5051558;28;7082;-82
2022/10/23 05:06:26;;;;;;;;;;;;;;;;;;5052079;28;6994;-82
2022/10/23 05:08:52;;;;;;;;;;;;;;;;;;5050719;28;7008;-84
2022/10/23 05:11:17;;;;;;;;;;;;;;;;;;5033630;28;7174;-81
2022/10/23 05:13:43;;;;;;;;;;;;;;;;;;5034748;28;8253;-83
2022/10/23 05:16:08;;;;;;;;;;;;;;;;;;5034043;28;8390;-83
2022/10/23 05:18:44;;;;;;;;;;;;;;;;;;5034272;28;8634;-82
2022/10/23 05:21:25;;;;;;;;;;;;;;;;;;5031328;28;7438;-83
2022/10/23 05:23:51;;;;;;;;;;;;;;;;;;5014462;28;7028;-83
2022/10/23 05:26:17;;;;;;;;;;;;;;;;;;5014708;28;8362;-83
2022/10/23 05:28:42;;;;;;;;;;;;;;;;;;5014709;28;7124;-83
2022/10/23 05:31:08;;;;;;;;;;;;;;;;;;5014095;28;7026;-83
2022/10/23 05:33:35;;;;;;;;;;;;;;;;;;5021070;28;7175;-81
2022/10/23 05:36:00;;;;;;;;;;;;;;;;;;5039699;28;8374;-80
2022/10/23 05:38:29;;;;;;;;;;;;;;;;;;5029326;28;7011;-84
2022/10/23 05:40:55;;;;;;;;;;;;;;;;;;5032302;28;8659;-79
2022/10/23 05:43:20;;;;;;;;;;;;;;;;;;5022269;28;8527;-78
2022/10/23 05:45:46;;;;;;;;;;;;;;;;;;5049144;28;7370;-83
2022/10/23 05:48:15;;;;;;;;;;;;;;;;;;5049470;28;8607;-83
2022/10/23 05:50:40;;;;;;;;;;;;;;;;;;5048181;28;7063;-76
2022/10/23 05:53:06;;;;;;;;;;;;;;;;;;5027807;28;8199;-82
2022/10/23 05:55:32;;;;;;;;;;;;;;;;;;5029532;28;8262;-83
2022/10/23 05:58:00;;;;;;;;;;;;;;;;;;5020363;28;7167;-84
2022/10/23 06:00:26;;;;;;;;;;;;;;;;;;5012273;28;8757;-82
2022/10/23 06:02:51;;;;;;;;;;;;;;;;;;5013145;28;8387;-84
2022/10/23 06:05:17;;;;;;;;;;;;;;;;;;5030107;28;7320;-83
2022/10/23 06:07:42;;;;;;;;;;;;;;;;;;5033174;28;7007;-83
2022/10/23 06:10:08;;;;;;;;;;;;;;;;;;5032022;28;7146;-82
2022/10/23 06:12:33;;;;;;;;;;;;;;;;;;5031728;28;8823;-82
2022/10/23 06:14:59;;;;;;;;;;;;;;;;;;5032457;28;8465;-80
2022/10/23 06:17:24;;;;;;;;;;;;;;;;;;5031374;28;8399;-79
2022/10/23 06:19:49;;;;;;;;;;;;;;;;;;5049187;28;7002;-83
2022/10/23 06:22:15;;;;;;;;;;;;;;;;;;5048930;28;9554;-81
2022/10/23 06:24:40;;;;;;;;;;;;;;;;;;5050253;28;8439;-82
2022/10/23 06:27:06;;;;;;;;;;;;;;;;;;5050573;28;7141;-82
2022/10/23 06:29:31;;;;;;;;;;;;;;;;;;5050274;28;7157;-82
2022/10/23 06:31:57;;;;;;;;;;;;;;;;;;5050080;28;7166;-83
2022/10/23 06:34:22;;;;;;;;;;;;;;;;;;5049792;28;8293;-83
2022/10/23 06:36:48;;;;;;;;;;;;;;;;;;5050089;28;8367;-83
2022/10/23 06:39:14;;;;;;;;;;;;;;;;;;5050419;28;7152;-83
2022/10/23 06:41:40;;;;;;;;;;;;;;;;;;5052662;28;7007;-83
2022/10/23 06:44:07;;;;;;;;;;;;;;;;;;5054734;28;7596;-81
2022/10/23 06:46:35;;;;;;;;;;;;;;;;;;5054142;28;7228;-83
2022/10/23 06:49:00;;;;;;;;;;;;;;;;;;5053790;28;8742;-81
2022/10/23 06:51:28;;;;;;;;;;;;;;;;;;5053990;28;8403;-82
2022/10/23 06:53:55;;;;;;;;;;;;;;;;;;5055726;28;7360;-83
2022/10/23 06:56:21;;;;;;;;;;;;;;;;;;5053142;28;8421;-82
2022/10/23 06:58:47;;;;;;;;;;;;;;;;;;5051717;28;7204;-82
2022/10/23 07:01:13;;;;;;;;;;;;;;;;;;5035616;28;8723;-85
2022/10/23 07:03:38;;;;;;;;;;;;;;;;;;5035585;28;8832;-84
2022/10/23 07:06:05;;;;;;;;;;;;;;;;;;5053034;28;8471;-83
2022/10/23 07:08:31;;;;;;;;;;;;;;;;;;5054036;28;7195;-84
2022/10/23 07:10:56;;;;;;;;;;;;;;;;;;5053561;28;8536;-83
2022/10/23 07:13:23;;;;;;;;;;;;;;;;;;5053484;28;7113;-81
2022/10/23 07:15:50;;;;;;;;;;;;;;;;;;5053296;28;7056;-81
2022/10/23 07:18:16;;;;;;;;;;;;;;;;;;5054104;28;7173;-82
2022/10/23 07:20:42;;;;;;;;;;;;;;;;;;5053471;28;7039;-82
2022/10/23 07:23:08;;;;;;;;;;;;;;;;;;5053105;28;7221;-83
2022/10/23 07:25:34;;;;;;;;;;;;;;;;;;5053421;28;7252;-83
2022/10/23 07:28:00;;;;;;;;;;;;;;;;;;5053128;28;7113;-82
2022/10/23 07:30:25;;;;;;;;;;;;;;;;;;5053024;28;8468;-83
2022/10/23 07:32:51;;;;;;;;;;;;;;;;;;5053028;28;7019;-84
2022/10/23 07:35:17;;;;;;;;;;;;;;;;;;5053140;28;7033;-83
2022/10/23 07:37:42;;;;;;;;;;;;;;;;;;5052877;28;9538;-83
2022/10/23 07:40:08;;;;;;;;;;;;;;;;;;5052820;28;8476;-82
2022/10/23 07:42:34;;;;;;;;;;;;;;;;;;5052589;28;7024;-82
2022/10/23 07:45:00;;;;;;;;;;;;;;;;;;5053870;28;8842;-82
2022/10/23 07:47:25;;;;;;;;;;;;;;;;;;5053329;28;7106;-81
2022/10/23 07:49:51;;;;;;;;;;;;;;;;;;5053005;28;8624;-82
2022/10/23 07:52:16;;;;;;;;;;;;;;;;;;5052018;28;7028;-82
2022/10/23 07:54:42;;;;;;;;;;;;;;;;;;5052405;28;8475;-82
2022/10/23 07:57:10;;;;;;;;;;;;;;;;;;5053698;28;7253;-82
2022/10/23 07:59:36;;;;;;;;;;;;;;;;;;5052541;28;8323;-82
2022/10/23 08:02:02;;;;;;;;;;;;;;;;;;5052850;28;8383;-83
2022/10/23 08:04:28;;;;;;;;;;;;;;;;;;5052438;28;8824;-84
2022/10/23 08:06:54;;;;;;;;;;;;;;;;;;5052790;28;7147;-83
2022/10/23 08:09:20;;;;;;;;;;;;;;;;;;5052150;28;7237;-84
2022/10/23 08:11:46;;;;;;;;;;;;;;;;;;5052639;28;7160;-83
2022/10/23 08:14:11;;;;;;;;;;;;;;;;;;5052458;28;7206;-84
2022/10/23 08:16:38;;;;;;;;;;;;;;;;;;5052075;28;7243;-83
2022/10/23 08:19:05;;;;;;;;;;;;;;;;;;5052166;28;7074;-85
2022/10/23 08:21:31;;;;;;;;;;;;;;;;;;5052419;28;8269;-83
2022/10/23 08:23:57;;;;;;;;;;;;;;;;;;5051960;28;8905;-83
2022/10/23 08:26:23;;;;;;;;;;;;;;;;;;5052190;28;7406;-83
2022/10/23 08:28:50;;;;;;;;;;;;;;;;;;5047522;28;8462;-83
2022/10/23 08:31:17;;;;;;;;;;;;;;;;;;5037821;28;8417;-80
2022/10/23 08:33:42;;;;;;;;;;;;;;;;;;5041123;28;8720;-83
2022/10/23 08:36:22;;;;;;;;;;;;;;;;;;5071648;28;7062;-82
2022/10/23 08:38:48;;;;;;;;;;;;;;;;;;5028308;28;7060;-81
2022/10/23 08:41:19;;;;;;;;;;;;;;;;;;5049469;28;7002;-79
2022/10/23 08:43:49;;;;;;;;;;;;;;;;;;5032251;28;7130;-81
2022/10/23 08:46:17;;;;;;;;;;;;;;;;;;5032634;28;8265;-80
2022/10/23 08:48:53;;;;;;;;;;;;;;;;;;5048805;28;8411;-78
2022/10/23 08:51:22;;;;;;;;;;;;;;;;;;5049216;28;7017;-81
2022/10/23 08:53:59;;;;;;;;;;;;;;;;;;5032270;28;8299;-82
2022/10/23 08:56:27;;;;;;;;;;;;;;;;;;5044279;28;8345;-83
2022/10/23 08:58:59;;;;;;;;;;;;;;;;;;5012490;28;8303;-85
2022/10/23 09:01:36;;;;;;;;;;;;;;;;;;5012358;28;6797;-82
2022/10/23 09:04:04;;;;;;;;;;;;;;;;;;5011853;28;7031;-80
2022/10/23 09:06:45;;;;;;;;;;;;;;;;;;5012254;28;8441;-81
2022/10/23 09:09:20;;;;;;;;;;;;;;;;;;5013253;28;8429;-83
2022/10/23 09:11:57;;;;;;;;;;;;;;;;;;5015595;28;7024;-80
2022/10/23 09:14:32;;;;;;;;;;;;;;;;;;5014844;28;8404;-83
2022/10/23 09:17:00;;;;;;;;;;;;;;;;;;5014419;28;8575;-82
2022/10/23 09:19:28;;;;;;;;;;;;;;;;;;5013534;28;7161;-82
2022/10/23 09:21:55;;;;;;;;;;;;;;;;;;5012035;28;7500;-84
2022/10/23 09:24:23;;;;;;;;;;;;;;;;;;5012169;28;7134;-83
2022/10/23 09:26:51;;;;;;;;;;;;;;;;;;5012332;28;7211;-82
2022/10/23 09:29:36;;;;;;;;;;;;;;;;;;5011991;28;7164;-85
2022/10/23 09:32:04;;;;;;;;;;;;;;;;;;5011678;28;8374;-84
2022/10/23 09:34:31;;;;;;;;;;;;;;;;;;5012082;28;7211;-83
2022/10/23 09:36:57;;;;;;;;;;;;;;;;;;5015685;28;8412;-84
2022/10/23 09:39:25;;;;;;;;;;;;;;;;;;5032066;28;8503;-84
2022/10/23 09:41:50;;;;;;;;;;;;;;;;;;5049824;28;8411;-81
2022/10/23 09:44:19;;;;;;;;;;;;;;;;;;5049078;28;8458;-82
2022/10/23 09:46:48;;;;;;;;;;;;;;;;;;5049336;28;7521;-83
2022/10/23 09:49:21;;;;;;;;;;;;;;;;;;5033621;28;7138;-82
2022/10/23 09:52:00;;;;;;;;;;;;;;;;;;5032647;28;8472;-85
2022/10/23 09:54:27;;;;;;;;;;;;;;;;;;5032654;28;7187;-83
2022/10/23 09:56:54;;;;;;;;;;;;;;;;;;5033334;28;7060;-83
2022/10/23 09:59:24;;;;;;;;;;;;;;;;;;5032959;28;7183;-83
2022/10/23 10:01:55;;;;;;;;;;;;;;;;;;5033095;28;7185;-82
2022/10/23 10:04:30;;;;;;;;;;;;;;;;;;5033406;28;8400;-82
2022/10/23 10:06:58;;;;;;;;;;;;;;;;;;5033666;28;8368;-81
2022/10/23 10:09:23;;;;;;;;;;;;;;;;;;5034226;28;7435;-82
2022/10/23 10:11:53;;;;;;;;;;;;;;;;;;5033013;28;8288;-83
2022/10/23 10:14:19;;;;;;;;;;;;;;;;;;5031866;28;7065;-81
2022/10/23 10:16:44;;;;;;;;;;;;;;;;;;5032448;28;7020;-83
2022/10/23 10:19:12;;;;;;;;;;;;;;;;;;5032970;28;7153;-82
2022/10/23 10:21:51;;;;;;;;;;;;;;;;;;5032612;28;8694;-80
2022/10/23 10:24:21;;;;;;;;;;;;;;;;;;5033515;28;8282;-82
2022/10/23 10:27:03;;;;;;;;;;;;;;;;;;5033167;28;7264;-83
2022/10/23 10:29:49;;;;;;;;;;;;;;;;;;5029748;28;8346;-82
2022/10/23 10:32:18;;;;;;;;;;;;;;;;;;5031697;28;7123;-79
2022/10/23 10:34:55;;;;;;;;;;;;;;;;;;5031711;28;8710;-82
2022/10/23 10:37:21;;;;;;;;;;;;;;;;;;5047055;28;8698;-81
2022/10/23 10:39:55;;;;;;;;;;;;;;;;;;5032776;28;7348;-81
2022/10/23 10:42:29;;;;;;;;;;;;;;;;;;5049327;28;7057;-81
2022/10/23 10:45:13;;;;;;;;;;;;;;;;;;5032243;28;8377;-84
2022/10/23 10:47:57;;;;;;;;;;;;;;;;;;5032173;28;7041;-84
2022/10/23 10:50:30;;;;;;;;;;;;;;;;;;5031970;28;7030;-82
2022/10/23 10:53:16;;;;;;;;;;;;;;;;;;5031887;28;7041;-84
2022/10/23 10:55:43;;;;;;;;;;;;;;;;;;5032102;28;8738;-81
2022/10/23 10:58:08;;;;;;;;;;;;;;;;;;5032240;28;8746;-82
2022/10/23 11:00:34;;;;;;;;;;;;;;;;;;5032485;28;8253;-83
2022/10/23 11:03:10;;;;;;;;;;;;;;;;;;5032043;28;7051;-82
2022/10/23 11:05:40;;;;;;;;;;;;;;;;;;5032392;28;7453;-81
2022/10/23 11:08:12;;;;;;;;;;;;;;;;;;5032075;28;7168;-83
2022/10/23 11:10:41;;;;;;;;;;;;;;;;;;5032366;28;7261;-84
2022/10/23 11:13:22;;;;;;;;;;;;;;;;;;5032055;28;8799;-82
2022/10/23 11:15:48;;;;;;;;;;;;;;;;;;5032119;28;8584;-83
2022/10/23 11:18:24;;;;;;;;;;;;;;;;;;5032416;28;7146;-83
2022/10/23 11:21:07;;;;;;;;;;;;;;;;;;5031796;28;8328;-82
2022/10/23 11:23:51;;;;;;;;;;;;;;;;;;5031940;28;9229;-82
2022/10/23 11:26:41;;;;;;;;;;;;;;;;;;5033322;28;7060;-81
2022/10/23 11:29:18;;;;;;;;;;;;;;;;;;5034244;28;8420;-84
2022/10/23 11:31:53;;;;;;;;;;;;;;;;;;5034920;28;8306;-81
2022/10/23 11:34:34;;;;;;;;;;;;;;;;;;5033922;28;7060;-82
2022/10/23 11:37:02;;;;;;;;;;;;;;;;;;5036236;28;9406;-81
2022/10/23 11:39:29;;;;;;;;;;;;;;;;;;5036573;28;8541;-82
2022/10/23 11:41:57;;;;;;;;;;;;;;;;;;5035528;28;8602;-80
2022/10/23 11:44:41;;;;;;;;;;;;;;;;;;5034805;28;7018;-81
2022/10/23 11:47:25;;;;;;;;;;;;;;;;;;5034616;28;8417;-83
2022/10/23 11:50:03;;;;;;;;;;;;;;;;;;5035584;28;7434;-83
2022/10/23 11:52:28;;;;;;;;;;;;;;;;;;5035250;28;7049;-83
2022/10/23 11:55:02;;;;;;;;;;;;;;;;;;5034712;28;7400;-81
2022/10/23 11:57:28;;;;;;;;;;;;;;;;;;5035455;28;8789;-82
2022/10/23 11:59:55;;;;;;;;;;;;;;;;;;5035221;28;8572;-83
2022/10/23 12:02:47;;;;;;;;;;;;;;;;;;5035079;28;8455;-83
2022/10/23 12:05:32;;;;;;;;;;;;;;;;;;5034477;28;8421;-83
2022/10/23 12:08:00;;;;;;;;;;;;;;;;;;5035895;28;8445;-83
2022/10/23 12:10:30;;;;;;;;;;;;;;;;;;5035548;28;8433;-83
2022/10/23 12:12:57;;;;;;;;;;;;;;;;;;5035583;28;8460;-83
2022/10/23 12:15:24;;;;;;;;;;;;;;;;;;5035450;28;8460;-84
2022/10/23 12:17:53;;;;;;;;;;;;;;;;;;5037116;28;8483;-84
2022/10/23 12:20:29;;;;;;;;;;;;;;;;;;5035519;28;7155;-84
2022/10/23 12:23:12;;;;;;;;;;;;;;;;;;5035132;28;7069;-82
2022/10/23 12:25:57;;;;;;;;;;;;;;;;;;5035057;28;8420;-82
2022/10/23 12:28:22;;;;;;;;;;;;;;;;;;5034768;28;8667;-84
2022/10/23 12:30:57;;;;;;;;;;;;;;;;;;5034611;28;8472;-83
2022/10/23 12:33:49;;;;;;;;;;;;;;;;;;5034653;28;7253;-84
2022/10/23 12:36:42;;;;;;;;;;;;;;;;;;5032653;28;8523;-81
2022/10/23 12:39:24;;;;;;;;;;;;;;;;;;5034105;28;9256;-82
2022/10/23 12:41:49;;;;;;;;;;;;;;;;;;5033994;28;8494;-82
2022/10/23 12:44:15;;;;;;;;;;;;;;;;;;5033968;28;7089;-82
2022/10/23 12:46:53;;;;;;;;;;;;;;;;;;5034187;28;7124;-82
2022/10/23 12:49:20;;;;;;;;;;;;;;;;;;5050891;28;8507;-83
2022/10/23 12:51:54;;;;;;;;;;;;;;;;;;5050731;28;8752;-81
2022/10/23 12:54:21;;;;;;;;;;;;;;;;;;5049968;28;8304;-81
2022/10/23 12:56:47;;;;;;;;;;;;;;;;;;5050118;28;8432;-79
2022/10/23 12:59:15;;;;;;;;;;;;;;;;;;5050354;28;8522;-82
2022/10/23 13:01:41;;;;;;;;;;;;;;;;;;5049329;28;7194;-78
2022/10/23 13:04:09;;;;;;;;;;;;;;;;;;5033843;28;8699;-83
2022/10/23 13:06:36;;;;;;;;;;;;;;;;;;5034250;28;8407;-84
2022/10/23 13:09:02;;;;;;;;;;;;;;;;;;5032988;28;8428;-84
2022/10/23 13:11:29;;;;;;;;;;;;;;;;;;5033615;28;7457;-84
2022/10/23 13:13:56;;;;;;;;;;;;;;;;;;5033231;28;6963;-86
2022/10/23 13:16:23;;;;;;;;;;;;;;;;;;5033981;28;7341;-84
2022/10/23 13:18:50;;;;;;;;;;;;;;;;;;5033451;28;7118;-85
2022/10/23 13:21:18;;;;;;;;;;;;;;;;;;5033963;28;7167;-82
2022/10/23 13:23:45;;;;;;;;;;;;;;;;;;5033124;28;8794;-84
2022/10/23 13:26:28;;;;;;;;;;;;;;;;;;5033850;28;6991;-84
2022/10/23 13:28:55;;;;;;;;;;;;;;;;;;5033404;28;8516;-84
2022/10/23 13:31:24;;;;;;;;;;;;;;;;;;5033720;28;8317;-84
2022/10/23 13:33:58;;;;;;;;;;;;;;;;;;5032869;28;9485;-84
2022/10/23 13:36:26;;;;;;;;;;;;;;;;;;5033532;28;7335;-84
2022/10/23 13:38:58;;;;;;;;;;;;;;;;;;5034069;28;8323;-84
2022/10/23 13:41:24;;;;;;;;;;;;;;;;;;5033772;28;8303;-84
2022/10/23 13:43:50;;;;;;;;;;;;;;;;;;5032390;28;8414;-82
2022/10/23 13:46:17;;;;;;;;;;;;;;;;;;5032751;28;7174;-84
2022/10/23 13:48:42;;;;;;;;;;;;;;;;;;5050760;28;8391;-85
2022/10/23 13:51:14;;;;;;;;;;;;;;;;;;5049725;28;7012;-84
2022/10/23 13:53:39;;;;;;;;;;;;;;;;;;5050410;28;8434;-84
2022/10/23 13:56:05;;;;;;;;;;;;;;;;;;5050617;28;8455;-81
2022/10/23 13:58:30;;;;;;;;;;;;;;;;;;5050408;28;7119;-83
2022/10/23 14:00:57;;;;;;;;;;;;;;;;;;5049660;28;6879;-81
2022/10/23 14:03:23;;;;;;;;;;;;;;;;;;5050611;28;7196;-81
2022/10/23 14:05:52;;;;;;;;;;;;;;;;;;5050107;28;7044;-82
2022/10/23 14:08:18;;;;;;;;;;;;;;;;;;5050731;28;7360;-81
2022/10/23 14:10:44;;;;;;;;;;;;;;;;;;5050179;28;8482;-82
2022/10/23 14:13:09;;;;;;;;;;;;;;;;;;5049946;28;7496;-81
2022/10/23 14:15:35;;;;;;;;;;;;;;;;;;5049588;28;8646;-81
2022/10/23 14:18:01;;;;;;;;;;;;;;;;;;5043622;28;8755;-82
2022/10/23 14:20:27;;;;;;;;;;;;;;;;;;5070028;28;8359;-83
2022/10/23 14:22:52;;;;;;;;;;;;;;;;;;5069497;28;7123;-83
2022/10/23 14:25:17;;;;;;;;;;;;;;;;;;5070130;28;8582;-82
2022/10/23 14:27:43;;;;;;;;;;;;;;;;;;5070476;28;8692;-82
2022/10/23 14:30:09;;;;;;;;;;;;;;;;;;5070085;28;8473;-83
2022/10/23 14:32:35;;;;;;;;;;;;;;;;;;5070095;28;7136;-83
2022/10/23 14:35:02;;;;;;;;;;;;;;;;;;5070385;28;8576;-83
2022/10/23 14:37:31;;;;;;;;;;;;;;;;;;5070595;28;7044;-83
2022/10/23 14:39:57;;;;;;;;;;;;;;;;;;5070281;28;8426;-84
2022/10/23 14:42:22;;;;;;;;;;;;;;;;;;5070031;28;7111;-84
2022/10/23 14:44:48;;;;;;;;;;;;;;;;;;5070194;28;8383;-84
2022/10/23 14:47:15;;;;;;;;;;;;;;;;;;5070202;28;7177;-84
2022/10/23 14:49:43;;;;;;;;;;;;;;;;;;5058640;28;7279;-85
2022/10/23 14:52:09;;;;;;;;;;;;;;;;;;5028225;28;8414;-86
2022/10/23 14:54:35;;;;;;;;;;;;;;;;;;5013333;28;8403;-85
2022/10/23 14:57:02;;;;;;;;;;;;;;;;;;5013512;28;7629;-84
2022/10/23 14:59:27;;;;;;;;;;;;;;;;;;5012658;28;8709;-83
2022/10/23 15:01:52;;;;;;;;;;;;;;;;;;5013605;28;8391;-85
2022/10/23 15:04:19;;;;;;;;;;;;;;;;;;5016862;28;8601;-85
2022/10/23 15:06:46;;;;;;;;;;;;;;;;;;5016895;28;8534;-84
2022/10/23 15:09:12;;;;;;;;;;;;;;;;;;5017236;28;7176;-84
2022/10/23 15:11:38;;;;;;;;;;;;;;;;;;5017572;28;7166;-84
2022/10/23 15:14:03;;;;;;;;;;;;;;;;;;5017264;28;7027;-83
2022/10/23 15:16:29;;;;;;;;;;;;;;;;;;5017011;28;8395;-83
2022/10/23 15:18:54;;;;;;;;;;;;;;;;;;5017356;28;8377;-83
2022/10/23 15:21:20;;;;;;;;;;;;;;;;;;5017208;28;8356;-83
2022/10/23 15:23:46;;;;;;;;;;;;;;;;;;5016891;28;7073;-83
2022/10/23 15:26:16;;;;;;;;;;;;;;;;;;5018357;28;8397;-84
2022/10/23 15:28:42;;;;;;;;;;;;;;;;;;5017111;28;7260;-82
2022/10/23 15:31:23;;;;;;;;;;;;;;;;;;5017278;28;8811;-83
2022/10/23 15:33:48;;;;;;;;;;;;;;;;;;5017328;28;8430;-83
2022/10/23 15:36:14;;;;;;;;;;;;;;;;;;5017102;28;8442;-83
2022/10/23 15:38:39;;;;;;;;;;;;;;;;;;5016940;28;8336;-86
2022/10/23 15:41:13;;;;;;;;;;;;;;;;;;5017309;28;7030;-84
2022/10/23 15:43:39;;;;;;;;;;;;;;;;;;5016816;28;8556;-84
2022/10/23 15:46:05;;;;;;;;;;;;;;;;;;5017464;28;7246;-81
2022/10/23 15:48:30;;;;;;;;;;;;;;;;;;5016465;28;7018;-84
2022/10/23 15:50:56;;;;;;;;;;;;;;;;;;5016481;28;8479;-82
2022/10/23 15:53:21;;;;;;;;;;;;;;;;;;5016230;28;7323;-82
2022/10/23 15:55:46;;;;;;;;;;;;;;;;;;5016584;28;7197;-84
2022/10/23 15:58:12;;;;;;;;;;;;;;;;;;5016371;28;7224;-81
2022/10/23 16:00:39;;;;;;;;;;;;;;;;;;5016124;28;8426;-83
2022/10/23 16:03:04;;;;;;;;;;;;;;;;;;5016348;28;6811;-84
2022/10/23 16:05:30;;;;;;;;;;;;;;;;;;5016479;28;7171;-83
2022/10/23 16:07:55;;;;;;;;;;;;;;;;;;5016472;28;8997;-82
2022/10/23 16:10:21;;;;;;;;;;;;;;;;;;5016616;28;8397;-83
2022/10/23 16:12:47;;;;;;;;;;;;;;;;;;5016649;28;7057;-83
2022/10/23 16:15:12;;;;;;;;;;;;;;;;;;5015940;28;8495;-83
2022/10/23 16:17:38;;;;;;;;;;;;;;;;;;5015856;28;7143;-83
2022/10/23 16:20:04;;;;;;;;;;;;;;;;;;5016341;28;8394;-85
2022/10/23 16:22:29;;;;;;;;;;;;;;;;;;5015878;28;8316;-85
2022/10/23 16:24:55;;;;;;;;;;;;;;;;;;5016022;28;7106;-87
2022/10/23 16:27:21;;;;;;;;;;;;;;;;;;5016018;28;8447;-85
2022/10/23 16:29:49;;;;;;;;;;;;;;;;;;5015986;28;7147;-84
2022/10/23 16:32:14;;;;;;;;;;;;;;;;;;5015772;28;8462;-86
2022/10/23 16:34:39;;;;;;;;;;;;;;;;;;5016750;28;7599;-85
2022/10/23 16:37:05;;;;;;;;;;;;;;;;;;5015865;28;8491;-85
2022/10/23 16:39:31;;;;;;;;;;;;;;;;;;5015418;28;8393;-86
2022/10/23 16:41:56;;;;;;;;;;;;;;;;;;5015461;28;7256;-84
2022/10/23 16:44:22;;;;;;;;;;;;;;;;;;5015881;28;8277;-82
2022/10/23 16:46:47;;;;;;;;;;;;;;;;;;5022126;28;7359;-85
2022/10/23 16:49:13;;;;;;;;;;;;;;;;;;5049363;28;7037;-84
2022/10/23 16:51:39;;;;;;;;;;;;;;;;;;5048581;28;7387;-84
2022/10/23 16:54:04;;;;;;;;;;;;;;;;;;5048539;28;7156;-80
2022/10/23 16:56:30;;;;;;;;;;;;;;;;;;5048451;28;6993;-82
2022/10/23 16:58:57;;;;;;;;;;;;;;;;;;5047981;28;7057;-79
2022/10/23 17:01:25;;;;;;;;;;;;;;;;;;5048173;28;8442;-84
2022/10/23 17:03:52;;;;;;;;;;;;;;;;;;5048407;28;8813;-83
2022/10/23 17:06:22;;;;;;;;;;;;;;;;;;5048537;28;7018;-85
2022/10/23 17:08:48;;;;;;;;;;;;;;;;;;5049060;28;8364;-85
2022/10/23 17:11:19;;;;;;;;;;;;;;;;;;5047976;28;7149;-84
2022/10/23 17:13:46;;;;;;;;;;;;;;;;;;5048485;28;8426;-83